createdAt,value
2018-10-18T00:00:38.810Z,0
2018-10-18T00:01:38.532Z,0
2018-10-18T00:02:39.038Z,0
2018-10-18T00:03:38.522Z,0
2018-10-18T00:04:38.495Z,0
2018-10-18T00:05:38.743Z,0
2018-10-18T00:06:38.474Z,0
2018-10-18T00:07:38.718Z,0
2018-10-18T00:08:38.701Z,0
2018-10-18T00:09:38.952Z,0
2018-10-18T00:10:38.939Z,0
2018-10-18T00:11:38.665Z,0
2018-10-18T00:12:38.651Z,0
2018-10-18T00:13:38.895Z,0
2018-10-18T00:14:38.885Z,0
2018-10-18T00:15:38.877Z,0
2018-10-18T00:16:38.609Z,0
2018-10-18T00:17:38.588Z,0
2018-10-18T00:18:38.584Z,0
2018-10-18T00:19:38.824Z,0
2018-10-18T00:20:38.812Z,0
2018-10-18T00:21:38.545Z,0
2018-10-18T00:22:38.532Z,0
2018-10-18T00:23:38.519Z,0
2018-10-18T00:24:38.761Z,0
2018-10-18T00:25:38.236Z,0
2018-10-18T00:26:38.739Z,0
2018-10-18T00:27:38.215Z,0
2018-10-18T00:28:38.197Z,0
2018-10-18T00:29:38.702Z,0
2018-10-18T00:30:38.684Z,0
2018-10-18T00:31:38.674Z,0
2018-10-18T00:32:38.406Z,0
2018-10-18T00:33:38.390Z,0
2018-10-18T00:34:38.647Z,0
2018-10-18T00:35:38.372Z,0
2018-10-18T00:36:38.356Z,0
2018-10-18T00:37:38.616Z,0
2018-10-18T00:38:38.592Z,0
2018-10-18T00:39:38.323Z,0
2018-10-18T00:40:38.563Z,0
2018-10-18T00:41:38.551Z,0
2018-10-18T00:42:38.288Z,0
2018-10-18T00:43:38.525Z,0
2018-10-18T00:44:38.513Z,0
2018-10-18T00:45:38.498Z,0
2018-10-18T00:46:38.489Z,0
2018-10-18T00:47:38.478Z,0
2018-10-18T00:48:38.210Z,0
2018-10-18T00:49:38.199Z,0
2018-10-18T00:50:38.187Z,0
2018-10-18T00:51:37.914Z,0
2018-10-18T00:52:38.416Z,0
2018-10-18T00:53:38.398Z,0
2018-10-18T00:54:38.137Z,0
2018-10-18T00:55:38.383Z,0
2018-10-18T00:56:38.370Z,0
2018-10-18T00:57:38.351Z,0
2018-10-18T00:58:38.338Z,0
2018-10-18T00:59:38.078Z,0
2018-10-18T01:00:38.073Z,0
2018-10-18T01:01:38.063Z,0
2018-10-18T01:02:37.784Z,0
2018-10-18T01:03:38.028Z,0
2018-10-18T01:04:38.008Z,0
2018-10-18T01:05:38.001Z,0
2018-10-18T01:06:37.991Z,0
2018-10-18T01:07:37.973Z,0
2018-10-18T01:08:38.213Z,0
2018-10-18T01:09:38.207Z,0
2018-10-18T01:10:38.194Z,0
2018-10-18T01:11:38.178Z,0
2018-10-18T01:12:38.858Z,0
2018-10-18T01:13:37.898Z,0
2018-10-18T01:14:37.886Z,0
2018-10-18T01:15:38.150Z,0
2018-10-18T01:16:37.607Z,0
2018-10-18T01:17:37.852Z,0
2018-10-18T01:18:38.093Z,0
2018-10-18T01:19:37.824Z,0
2018-10-18T01:20:37.560Z,0
2018-10-18T01:21:37.809Z,0
2018-10-18T01:22:37.796Z,0
2018-10-18T01:23:38.034Z,0
2018-10-18T01:24:37.763Z,0
2018-10-18T01:25:38.005Z,0
2018-10-18T01:26:37.738Z,0
2018-10-18T01:27:37.470Z,0
2018-10-18T01:28:37.970Z,0
2018-10-18T01:29:37.700Z,0
2018-10-18T01:30:37.955Z,0
2018-10-18T01:31:37.683Z,0
2018-10-18T01:32:37.917Z,0
2018-10-18T01:33:37.661Z,0
2018-10-18T01:34:37.643Z,0
2018-10-18T01:35:37.883Z,0
2018-10-18T01:36:37.874Z,0
2018-10-18T01:37:37.860Z,0
2018-10-18T01:38:37.842Z,0
2018-10-18T01:39:37.830Z,0
2018-10-18T01:40:37.822Z,0
2018-10-18T01:41:37.553Z,0
2018-10-18T01:42:37.800Z,0
2018-10-18T01:43:37.530Z,0
2018-10-18T01:44:37.780Z,0
2018-10-18T01:45:37.760Z,0
2018-10-18T01:46:37.747Z,0
2018-10-18T01:47:37.224Z,0
2018-10-18T01:48:37.207Z,0
2018-10-18T01:49:37.201Z,0
2018-10-18T01:50:37.440Z,0
2018-10-18T01:51:37.686Z,0
2018-10-18T01:52:37.160Z,0
2018-10-18T01:53:37.660Z,0
2018-10-18T01:54:37.657Z,0
2018-10-18T01:55:37.382Z,0
2018-10-18T01:56:37.626Z,0
2018-10-18T01:57:37.104Z,0
2018-10-18T01:58:37.340Z,0
2018-10-18T01:59:37.584Z,0
2018-10-18T02:00:37.577Z,0
2018-10-18T02:01:37.607Z,0
2018-10-18T02:02:37.554Z,0
2018-10-18T02:03:37.277Z,0
2018-10-18T02:04:37.522Z,0
2018-10-18T02:05:37.510Z,0
2018-10-18T02:06:37.546Z,0
2018-10-18T02:07:37.504Z,0
2018-10-18T02:08:37.577Z,0
2018-10-18T02:09:37.205Z,0
2018-10-18T02:10:37.200Z,0
2018-10-18T02:11:37.441Z,0
2018-10-18T02:12:37.171Z,0
2018-10-18T02:13:37.696Z,0
2018-10-18T02:14:36.901Z,0
2018-10-18T02:15:37.391Z,0
2018-10-18T02:16:37.376Z,0
2018-10-18T02:17:37.370Z,0
2018-10-18T02:18:37.371Z,0
2018-10-18T02:19:37.336Z,0
2018-10-18T02:20:37.327Z,0
2018-10-18T02:21:37.057Z,0
2018-10-18T02:22:37.055Z,0
2018-10-18T02:23:37.289Z,0
2018-10-18T02:24:37.023Z,0
2018-10-18T02:25:36.750Z,0
2018-10-18T02:26:36.994Z,0
2018-10-18T02:27:36.985Z,0
2018-10-18T02:28:37.235Z,0
2018-10-18T02:29:36.960Z,0
2018-10-18T02:30:36.948Z,0
2018-10-18T02:31:36.940Z,0
2018-10-18T02:32:36.929Z,0
2018-10-18T02:33:37.165Z,0
2018-10-18T02:34:37.150Z,0
2018-10-18T02:35:36.884Z,0
2018-10-18T02:36:37.137Z,0
2018-10-18T02:37:37.110Z,0
2018-10-18T02:38:37.155Z,0
2018-10-18T02:39:37.089Z,0
2018-10-18T02:40:37.144Z,0
2018-10-18T02:41:37.062Z,0
2018-10-18T02:42:36.833Z,0
2018-10-18T02:43:37.040Z,0
2018-10-18T02:44:37.038Z,0
2018-10-18T02:45:36.767Z,0
2018-10-18T02:46:37.002Z,0
2018-10-18T02:47:36.998Z,0
2018-10-18T02:48:36.723Z,0
2018-10-18T02:49:36.971Z,0
2018-10-18T02:50:36.701Z,0
2018-10-18T02:51:36.694Z,0
2018-10-18T02:52:36.930Z,0
2018-10-18T02:53:36.916Z,0
2018-10-18T02:54:36.909Z,0
2018-10-18T02:55:36.887Z,0
2018-10-18T02:56:36.873Z,0
2018-10-18T02:57:36.874Z,0
2018-10-18T02:58:36.850Z,0
2018-10-18T02:59:36.587Z,0
2018-10-18T03:00:36.838Z,0
2018-10-18T03:01:36.813Z,0
2018-10-18T03:02:36.546Z,0
2018-10-18T03:03:36.534Z,0
2018-10-18T03:04:36.778Z,0
2018-10-18T03:05:36.780Z,0
2018-10-18T03:06:36.753Z,0
2018-10-18T03:07:36.488Z,0
2018-10-18T03:08:36.735Z,0
2018-10-18T03:09:36.456Z,0
2018-10-18T03:10:36.704Z,0
2018-10-18T03:11:36.434Z,0
2018-10-18T03:12:36.164Z,0
2018-10-18T03:13:36.665Z,0
2018-10-18T03:14:36.398Z,0
2018-10-18T03:15:36.634Z,0
2018-10-18T03:16:36.628Z,0
2018-10-18T03:17:36.612Z,0
2018-10-18T03:18:36.356Z,0
2018-10-18T03:19:36.333Z,0
2018-10-18T03:20:36.064Z,0
2018-10-18T03:21:36.309Z,0
2018-10-18T03:22:36.560Z,0
2018-10-18T03:23:36.284Z,0
2018-10-18T03:24:36.274Z,0
2018-10-18T03:25:36.518Z,0
2018-10-18T03:26:36.497Z,0
2018-10-18T03:27:36.483Z,0
2018-10-18T03:28:36.222Z,0
2018-10-18T03:29:36.489Z,0
2018-10-18T03:30:36.193Z,0
2018-10-18T03:31:35.938Z,0
2018-10-18T03:32:36.426Z,0
2018-10-18T03:33:36.152Z,0
2018-10-18T03:34:36.141Z,0
2018-10-18T03:35:36.123Z,0
2018-10-18T03:36:36.169Z,0
2018-10-18T03:37:36.355Z,0
2018-10-18T03:38:36.348Z,0
2018-10-18T03:39:36.333Z,0
2018-10-18T03:40:36.324Z,0
2018-10-18T03:41:36.815Z,0
2018-10-18T03:42:36.298Z,0
2018-10-18T03:43:36.280Z,0
2018-10-18T03:44:36.274Z,0
2018-10-18T03:45:36.258Z,0
2018-10-18T03:46:35.992Z,0
2018-10-18T03:47:35.974Z,0
2018-10-18T03:48:35.972Z,0
2018-10-18T03:49:35.954Z,0
2018-10-18T03:50:36.189Z,0
2018-10-18T03:51:35.667Z,0
2018-10-18T03:52:36.167Z,0
2018-10-18T03:53:36.163Z,0
2018-10-18T03:54:36.160Z,0
2018-10-18T03:55:36.132Z,0
2018-10-18T03:56:36.121Z,0
2018-10-18T03:57:36.110Z,0
2018-10-18T03:58:36.091Z,0
2018-10-18T03:59:36.439Z,0
2018-10-18T04:00:36.086Z,0
2018-10-18T04:01:36.052Z,0
2018-10-18T04:02:35.785Z,0
2018-10-18T04:03:35.771Z,0
2018-10-18T04:04:36.017Z,0
2018-10-18T04:05:35.999Z,0
2018-10-18T04:06:35.984Z,0
2018-10-18T04:07:35.973Z,0
2018-10-18T04:08:35.962Z,0
2018-10-18T04:09:35.946Z,0
2018-10-18T04:10:35.944Z,0
2018-10-18T04:11:35.921Z,0
2018-10-18T04:12:36.099Z,0
2018-10-18T04:13:35.902Z,0
2018-10-18T04:14:35.632Z,0
2018-10-18T04:15:35.361Z,0
2018-10-18T04:16:35.850Z,0
2018-10-18T04:17:35.588Z,0
2018-10-18T04:18:35.498Z,0
2018-10-18T04:19:35.570Z,0
2018-10-18T04:20:35.804Z,0
2018-10-18T04:21:35.793Z,0
2018-10-18T04:22:35.518Z,0
2018-10-18T04:23:35.774Z,0
2018-10-18T04:24:35.501Z,0
2018-10-18T04:25:35.776Z,0
2018-10-18T04:26:35.725Z,0
2018-10-18T04:27:35.202Z,0
2018-10-18T04:28:35.701Z,0
2018-10-18T04:29:35.431Z,0
2018-10-18T04:30:35.672Z,0
2018-10-18T04:31:35.681Z,0
2018-10-18T04:32:35.644Z,0
2018-10-18T04:33:35.638Z,0
2018-10-18T04:34:35.628Z,0
2018-10-18T04:35:35.615Z,0
2018-10-18T04:36:35.337Z,0
2018-10-18T04:37:36.480Z,0
2018-10-18T04:38:35.568Z,0
2018-10-18T04:39:35.300Z,0
2018-10-18T04:40:35.554Z,0
2018-10-18T04:41:35.283Z,0
2018-10-18T04:42:35.008Z,0
2018-10-18T04:43:35.260Z,0
2018-10-18T04:44:35.495Z,0
2018-10-18T04:45:35.258Z,0
2018-10-18T04:46:34.956Z,0
2018-10-18T04:47:35.713Z,0
2018-10-18T04:48:35.769Z,0
2018-10-18T04:49:35.166Z,0
2018-10-18T04:50:35.156Z,0
2018-10-18T04:51:35.143Z,0
2018-10-18T04:52:35.386Z,0
2018-10-18T04:53:35.372Z,0
2018-10-18T04:54:35.357Z,0
2018-10-18T04:55:35.094Z,0
2018-10-18T04:56:35.107Z,0
2018-10-18T04:57:34.811Z,0
2018-10-18T04:58:35.051Z,0
2018-10-18T04:59:35.300Z,0
2018-10-18T05:00:35.282Z,0
2018-10-18T05:01:35.536Z,0
2018-10-18T05:02:35.437Z,0
2018-10-18T05:03:35.240Z,0
2018-10-18T05:04:35.065Z,0
2018-10-18T05:05:34.954Z,0
2018-10-18T05:06:34.950Z,0
2018-10-18T05:07:35.189Z,0
2018-10-18T05:08:35.173Z,4
2018-10-18T05:09:35.164Z,4
2018-10-18T05:10:34.641Z,0
2018-10-18T05:11:34.774Z,4
2018-10-18T05:12:35.334Z,4
2018-10-18T05:13:34.345Z,4
2018-10-18T05:14:35.104Z,8
2018-10-18T05:15:35.085Z,8
2018-10-18T05:16:35.065Z,12
2018-10-18T05:17:34.806Z,12
2018-10-18T05:18:34.789Z,12
2018-10-18T05:19:35.032Z,16
2018-10-18T05:20:35.016Z,20
2018-10-18T05:21:34.761Z,24
2018-10-18T05:22:34.991Z,24
2018-10-18T05:23:34.978Z,32
2018-10-18T05:24:34.707Z,36
2018-10-18T05:25:34.924Z,48
2018-10-18T05:26:34.681Z,52
2018-10-18T05:27:34.924Z,60
2018-10-18T05:28:34.922Z,68
2018-10-18T05:29:34.645Z,80
2018-10-18T05:30:34.889Z,88
2018-10-18T05:31:35.179Z,100
2018-10-18T05:32:34.609Z,116
2018-10-18T05:33:34.853Z,124
2018-10-18T05:34:34.321Z,140
2018-10-18T05:35:34.822Z,156
2018-10-18T05:36:34.816Z,172
2018-10-18T05:37:34.927Z,188
2018-10-18T05:38:34.782Z,208
2018-10-18T05:39:34.511Z,224
2018-10-18T05:40:34.757Z,244
2018-10-18T05:41:34.492Z,264
2018-10-18T05:42:34.481Z,284
2018-10-18T05:43:34.727Z,308
2018-10-18T05:44:34.445Z,324
2018-10-18T05:45:34.434Z,348
2018-10-18T05:46:34.829Z,376
2018-10-18T05:47:34.660Z,396
2018-10-18T05:48:34.397Z,416
2018-10-18T05:49:34.634Z,444
2018-10-18T05:50:34.624Z,468
2018-10-18T05:51:34.353Z,500
2018-10-18T05:52:34.599Z,528
2018-10-18T05:53:35.211Z,564
2018-10-18T05:54:34.063Z,604
2018-10-18T05:55:34.309Z,652
2018-10-18T05:56:34.542Z,704
2018-10-18T05:57:34.532Z,756
2018-10-18T05:58:34.519Z,816
2018-10-18T05:59:34.000Z,876
2018-10-18T06:00:34.493Z,944
2018-10-18T06:01:33.978Z,1016
2018-10-18T06:02:33.956Z,1056
2018-10-18T06:03:33.944Z,1088
2018-10-18T06:04:34.185Z,1156
2018-10-18T06:05:34.173Z,1260
2018-10-18T06:06:34.159Z,1324
2018-10-18T06:07:33.894Z,1396
2018-10-18T06:08:34.388Z,1420
2018-10-18T06:09:34.475Z,1468
2018-10-18T06:10:34.947Z,1536
2018-10-18T06:11:34.107Z,1636
2018-10-18T06:12:33.829Z,1708
2018-10-18T06:13:34.073Z,1756
2018-10-18T06:14:34.322Z,1808
2018-10-18T06:15:34.300Z,1856
2018-10-18T06:16:34.294Z,1908
2018-10-18T06:17:34.273Z,1952
2018-10-18T06:18:34.012Z,1996
2018-10-18T06:19:34.006Z,2072
2018-10-18T06:20:34.263Z,2168
2018-10-18T06:21:34.286Z,2264
2018-10-18T06:22:33.980Z,2320
2018-10-18T06:23:34.485Z,2388
2018-10-18T06:24:33.947Z,2420
2018-10-18T06:25:34.189Z,2496
2018-10-18T06:26:34.166Z,2640
2018-10-18T06:27:33.902Z,2684
2018-10-18T06:28:34.145Z,2756
2018-10-18T06:29:33.878Z,2836
2018-10-18T06:30:33.871Z,2912
2018-10-18T06:31:33.859Z,2956
2018-10-18T06:32:34.096Z,3136
2018-10-18T06:33:33.579Z,3104
2018-10-18T06:34:33.821Z,3260
2018-10-18T06:35:34.067Z,3400
2018-10-18T06:36:34.057Z,3376
2018-10-18T06:37:34.601Z,3336
2018-10-18T06:38:33.775Z,3320
2018-10-18T06:39:34.027Z,3488
2018-10-18T06:40:33.751Z,3556
2018-10-18T06:41:34.002Z,3292
2018-10-18T06:42:33.988Z,3340
2018-10-18T06:43:33.983Z,3332
2018-10-18T06:44:33.462Z,3240
2018-10-18T06:45:33.696Z,3304
2018-10-18T06:46:33.942Z,3516
2018-10-18T06:47:34.541Z,3628
2018-10-18T06:48:33.918Z,4008
2018-10-18T06:49:34.355Z,4032
2018-10-18T06:50:33.664Z,4000
2018-10-18T06:51:33.632Z,3716
2018-10-18T06:52:33.879Z,3316
2018-10-18T06:53:33.612Z,3016
2018-10-18T06:54:33.607Z,3112
2018-10-18T06:55:33.858Z,3440
2018-10-18T06:56:33.840Z,3512
2018-10-18T06:57:33.831Z,3508
2018-10-18T06:58:33.566Z,3660
2018-10-18T06:59:33.559Z,3388
2018-10-18T07:00:33.897Z,3260
2018-10-18T07:01:33.533Z,3632
2018-10-18T07:02:33.781Z,3324
2018-10-18T07:03:33.770Z,3188
2018-10-18T07:04:33.760Z,2952
2018-10-18T07:05:33.499Z,2696
2018-10-18T07:06:33.744Z,2544
2018-10-18T07:07:33.731Z,2500
2018-10-18T07:08:33.725Z,2508
2018-10-18T07:09:33.468Z,2636
2018-10-18T07:10:33.449Z,2808
2018-10-18T07:11:33.441Z,3080
2018-10-18T07:12:33.427Z,3388
2018-10-18T07:13:33.422Z,3728
2018-10-18T07:14:33.675Z,4208
2018-10-18T07:15:33.401Z,4304
2018-10-18T07:16:33.647Z,4284
2018-10-18T07:17:33.498Z,4076
2018-10-18T07:18:33.625Z,3876
2018-10-18T07:19:33.111Z,3828
2018-10-18T07:20:33.608Z,4120
2018-10-18T07:21:33.347Z,4584
2018-10-18T07:22:33.589Z,5036
2018-10-18T07:23:33.072Z,5392
2018-10-18T07:24:33.313Z,5672
2018-10-18T07:25:33.430Z,5528
2018-10-18T07:26:33.552Z,5196
2018-10-18T07:27:33.032Z,5168
2018-10-18T07:28:33.273Z,5192
2018-10-18T07:29:33.275Z,5244
2018-10-18T07:30:33.513Z,5144
2018-10-18T07:31:33.512Z,5012
2018-10-18T07:32:33.249Z,4716
2018-10-18T07:33:33.233Z,4504
2018-10-18T07:34:33.484Z,4516
2018-10-18T07:35:33.469Z,4800
2018-10-18T07:36:33.462Z,5408
2018-10-18T07:37:33.208Z,5556
2018-10-18T07:38:33.447Z,5212
2018-10-18T07:39:33.180Z,4812
2018-10-18T07:40:33.427Z,4664
2018-10-18T07:41:33.167Z,4544
2018-10-18T07:42:32.902Z,4476
2018-10-18T07:43:33.150Z,4020
2018-10-18T07:44:33.138Z,3828
2018-10-18T07:45:33.138Z,3836
2018-10-18T07:46:32.871Z,3860
2018-10-18T07:47:33.377Z,3892
2018-10-18T07:48:33.368Z,3968
2018-10-18T07:49:33.101Z,4168
2018-10-18T07:50:33.095Z,4360
2018-10-18T07:51:33.343Z,4444
2018-10-18T07:52:33.083Z,4484
2018-10-18T07:53:33.736Z,4468
2018-10-18T07:54:33.328Z,4420
2018-10-18T07:55:33.050Z,4344
2018-10-18T07:56:33.047Z,4360
2018-10-18T07:57:33.037Z,4432
2018-10-18T07:58:33.031Z,4400
2018-10-18T07:59:33.026Z,4508
2018-10-18T08:00:32.985Z,4660
2018-10-18T08:01:33.267Z,4660
2018-10-18T08:02:33.254Z,4716
2018-10-18T08:03:33.244Z,4648
2018-10-18T08:04:32.993Z,4800
2018-10-18T08:05:33.244Z,5164
2018-10-18T08:06:32.968Z,5412
2018-10-18T08:07:33.223Z,5460
2018-10-18T08:08:33.208Z,5852
2018-10-18T08:09:33.242Z,6368
2018-10-18T08:10:32.940Z,6780
2018-10-18T08:11:32.935Z,7084
2018-10-18T08:12:33.101Z,7336
2018-10-18T08:13:33.176Z,8144
2018-10-18T08:14:32.910Z,9188
2018-10-18T08:15:33.161Z,10012
2018-10-18T08:16:32.904Z,10200
2018-10-18T08:17:32.861Z,9340
2018-10-18T08:18:33.137Z,9716
2018-10-18T08:19:32.879Z,9840
2018-10-18T08:20:32.869Z,9308
2018-10-18T08:21:32.608Z,8524
2018-10-18T08:24:27.862Z,7788
2018-10-18T08:24:37.717Z,8036
2018-10-18T08:25:37.718Z,7596
2018-10-18T08:26:37.716Z,7188
2018-10-18T08:27:37.700Z,7356
2018-10-18T08:28:37.440Z,7976
2018-10-18T08:29:37.436Z,8116
2018-10-18T08:30:37.829Z,8404
2018-10-18T08:31:37.906Z,8648
2018-10-18T08:32:37.416Z,8856
2018-10-18T08:33:37.407Z,8976
2018-10-18T08:34:37.661Z,8280
2018-10-18T08:35:37.836Z,7796
2018-10-18T08:36:37.997Z,7240
2018-10-18T08:37:37.764Z,6776
2018-10-18T08:38:37.632Z,6684
2018-10-18T08:39:37.630Z,6204
2018-10-18T08:40:37.369Z,5372
2018-10-18T08:41:37.615Z,4904
2018-10-18T08:42:37.108Z,4672
2018-10-18T08:43:36.834Z,4452
2018-10-18T08:44:38.359Z,4736
2018-10-18T08:45:37.345Z,5292
2018-10-18T08:46:37.593Z,5384
2018-10-18T08:47:37.346Z,4888
2018-10-18T08:48:37.323Z,4940
2018-10-18T08:49:37.078Z,5316
2018-10-18T08:50:37.304Z,5380
2018-10-18T08:51:37.565Z,5600
2018-10-18T08:52:37.552Z,5572
2018-10-18T08:53:37.539Z,5824
2018-10-18T08:54:37.531Z,6364
2018-10-18T08:55:37.921Z,6684
2018-10-18T08:56:37.533Z,6896
2018-10-18T08:57:37.262Z,6728
2018-10-18T08:58:37.509Z,6644
2018-10-18T08:59:37.506Z,6736
2018-10-18T09:00:37.500Z,6692
2018-10-18T09:01:37.232Z,6308
2018-10-18T09:02:37.487Z,5568
2018-10-18T09:03:37.476Z,5608
2018-10-18T09:04:37.215Z,6184
2018-10-18T09:05:36.961Z,6244
2018-10-18T09:06:37.200Z,6652
2018-10-18T09:07:37.204Z,5868
2018-10-18T09:08:37.193Z,6100
2018-10-18T09:09:37.436Z,6216
2018-10-18T09:10:37.173Z,6512
2018-10-18T09:11:37.425Z,5964
2018-10-18T09:12:37.163Z,6196
2018-10-18T09:13:37.412Z,7008
2018-10-18T09:14:37.407Z,6796
2018-10-18T09:15:37.404Z,6980
2018-10-18T09:16:37.136Z,7484
2018-10-18T09:17:37.128Z,8060
2018-10-18T09:18:37.380Z,8736
2018-10-18T09:19:37.373Z,8792
2018-10-18T09:20:37.364Z,8368
2018-10-18T09:21:37.365Z,8000
2018-10-18T09:22:37.347Z,7732
2018-10-18T09:23:37.198Z,6868
2018-10-18T09:24:37.341Z,6208
2018-10-18T09:25:37.083Z,6012
2018-10-18T09:26:36.818Z,5792
2018-10-18T09:27:37.066Z,5380
2018-10-18T09:28:37.057Z,5472
2018-10-18T09:29:37.307Z,5604
2018-10-18T09:30:37.745Z,6020
2018-10-18T09:31:37.296Z,5936
2018-10-18T09:32:37.290Z,5472
2018-10-18T09:33:37.280Z,5088
2018-10-18T09:34:37.023Z,4780
2018-10-18T09:35:37.270Z,4960
2018-10-18T09:36:36.752Z,5112
2018-10-18T09:37:37.264Z,5400
2018-10-18T09:38:37.648Z,5320
2018-10-18T09:39:37.045Z,5208
2018-10-18T09:40:37.332Z,4908
2018-10-18T09:41:37.234Z,4912
2018-10-18T09:42:37.240Z,5000
2018-10-18T09:43:37.225Z,4792
2018-10-18T09:44:37.743Z,4512
2018-10-18T09:45:37.217Z,4620
2018-10-18T09:46:37.204Z,4812
2018-10-18T09:47:37.192Z,4880
2018-10-18T09:48:37.193Z,4776
2018-10-18T09:49:37.190Z,4728
2018-10-18T09:50:37.189Z,4672
2018-10-18T09:51:37.180Z,4536
2018-10-18T09:52:36.913Z,4392
2018-10-18T09:53:36.911Z,4224
2018-10-18T09:54:37.159Z,4188
2018-10-18T09:55:37.476Z,4176
2018-10-18T09:56:37.142Z,4124
2018-10-18T09:57:36.890Z,4052
2018-10-18T09:58:37.133Z,4032
2018-10-18T09:59:37.127Z,4012
2018-10-18T10:00:37.120Z,3980
2018-10-18T10:01:37.116Z,3960
2018-10-18T10:02:37.163Z,4028
2018-10-18T10:03:36.844Z,4108
2018-10-18T10:04:36.846Z,4176
2018-10-18T10:05:36.882Z,4184
2018-10-18T10:06:36.828Z,4124
2018-10-18T10:07:36.835Z,4012
2018-10-18T10:08:37.075Z,3980
2018-10-18T10:09:37.069Z,3928
2018-10-18T10:10:37.064Z,3892
2018-10-18T10:11:37.443Z,3852
2018-10-18T10:12:37.049Z,3820
2018-10-18T10:13:37.911Z,3848
2018-10-18T10:14:37.051Z,3864
2018-10-18T10:15:37.030Z,3836
2018-10-18T10:16:37.020Z,3792
2018-10-18T10:17:37.077Z,3740
2018-10-18T10:18:36.776Z,3732
2018-10-18T10:19:36.757Z,3756
2018-10-18T10:20:36.747Z,3660
2018-10-18T10:21:36.997Z,3576
2018-10-18T10:22:36.742Z,3644
2018-10-18T10:23:36.736Z,3680
2018-10-18T10:24:36.972Z,3716
2018-10-18T10:25:36.988Z,3736
2018-10-18T10:26:36.713Z,3744
2018-10-18T10:27:36.448Z,3648
2018-10-18T10:28:36.962Z,3552
2018-10-18T10:29:36.953Z,3616
2018-10-18T10:30:37.241Z,3692
2018-10-18T10:31:36.936Z,3680
2018-10-18T10:32:36.671Z,3568
2018-10-18T10:33:36.955Z,3552
2018-10-18T10:34:36.925Z,3452
2018-10-18T10:35:37.264Z,3388
2018-10-18T10:36:36.911Z,3228
2018-10-18T10:37:36.906Z,3324
2018-10-18T10:38:36.818Z,3372
2018-10-18T10:39:36.636Z,3408
2018-10-18T10:40:36.888Z,3464
2018-10-18T10:41:36.888Z,3476
2018-10-18T10:42:36.878Z,3416
2018-10-18T10:43:36.357Z,3416
2018-10-18T10:44:36.993Z,3452
2018-10-18T10:45:36.861Z,3448
2018-10-18T10:46:36.596Z,3436
2018-10-18T10:47:36.852Z,3424
2018-10-18T10:48:36.840Z,3396
2018-10-18T10:49:36.326Z,3436
2018-10-18T10:50:36.833Z,3460
2018-10-18T10:51:36.569Z,3460
2018-10-18T10:52:36.560Z,3428
2018-10-18T10:53:36.556Z,3380
2018-10-18T10:54:37.394Z,3400
2018-10-18T10:55:37.179Z,3436
2018-10-18T10:56:36.285Z,3464
2018-10-18T10:57:36.543Z,3480
2018-10-18T10:58:36.275Z,3492
2018-10-18T10:59:36.779Z,3516
2018-10-18T11:00:36.516Z,3512
2018-10-18T11:01:36.762Z,3496
2018-10-18T11:02:36.506Z,3484
2018-10-18T11:03:36.498Z,3500
2018-10-18T11:04:36.769Z,3496
2018-10-18T11:05:36.750Z,3472
2018-10-18T11:06:36.739Z,3448
2018-10-18T11:07:36.735Z,3472
2018-10-18T11:08:36.726Z,3500
2018-10-18T11:09:37.422Z,3520
2018-10-18T11:14:20.060Z,4140
2018-10-18T11:15:17.526Z,4536
2018-10-18T11:17:33.817Z,3940
2018-10-18T11:17:43.423Z,3860
2018-10-18T11:18:43.421Z,3740
2018-10-18T11:19:43.155Z,3832
2018-10-18T11:20:43.161Z,4028
2018-10-18T11:21:43.107Z,4172
2018-10-18T11:22:43.140Z,4312
2018-10-18T11:23:43.132Z,4564
2018-10-18T11:24:43.077Z,5024
2018-10-18T11:25:42.871Z,4484
2018-10-18T11:26:43.376Z,4272
2018-10-18T11:27:43.119Z,4316
2018-10-18T11:28:42.855Z,4292
2018-10-18T11:29:43.359Z,4064
2018-10-18T11:30:43.103Z,3816
2018-10-18T11:31:43.092Z,3648
2018-10-18T11:32:43.101Z,3644
2018-10-18T11:33:42.855Z,3876
2018-10-18T11:34:43.709Z,4244
2018-10-18T11:35:43.098Z,4608
2018-10-18T11:36:43.086Z,4308
2018-10-18T11:37:43.083Z,4212
2018-10-18T11:38:43.333Z,4188
2018-10-18T11:39:43.338Z,4004
2018-10-18T11:40:43.066Z,3688
2018-10-18T11:41:43.069Z,3624
2018-10-18T11:42:43.366Z,3396
2018-10-18T11:43:43.052Z,3364
2018-10-18T11:44:43.059Z,3312
2018-10-18T11:45:43.041Z,3280
2018-10-18T11:46:43.290Z,3292
2018-10-18T11:47:42.773Z,3356
2018-10-18T11:48:43.284Z,3592
2018-10-18T11:49:43.025Z,3340
2018-10-18T11:50:43.275Z,3256
2018-10-18T11:51:43.023Z,3240
2018-10-18T11:52:43.260Z,3240
2018-10-18T11:53:43.005Z,3180
2018-10-18T11:54:42.992Z,3172
2018-10-18T11:55:43.249Z,3240
2018-10-18T11:56:43.241Z,3344
2018-10-18T11:57:42.715Z,3308
2018-10-18T11:58:43.225Z,3452
2018-10-18T11:59:42.963Z,3512
2018-10-18T12:00:43.215Z,3240
2018-10-18T12:01:43.211Z,3312
2018-10-18T12:02:42.559Z,3224
2018-10-18T12:03:42.689Z,3260
2018-10-18T12:04:43.202Z,3240
2018-10-18T12:05:42.934Z,3308
2018-10-18T12:06:42.945Z,3284
2018-10-18T12:07:42.926Z,3232
2018-10-18T12:08:42.927Z,3204
2018-10-18T12:09:42.915Z,3200
2018-10-18T12:10:43.162Z,3184
2018-10-18T12:11:43.169Z,3196
2018-10-18T12:12:43.159Z,3288
2018-10-18T12:13:43.162Z,3404
2018-10-18T12:14:42.888Z,3604
2018-10-18T12:15:43.151Z,3756
2018-10-18T12:16:42.877Z,3948
2018-10-18T12:17:42.621Z,3884
2018-10-18T12:18:43.119Z,3652
2018-10-18T12:19:42.601Z,3344
2018-10-18T12:20:43.115Z,3412
2018-10-18T12:21:43.176Z,3672
2018-10-18T12:22:42.854Z,3828
2018-10-18T12:23:43.098Z,4224
2018-10-18T12:24:42.848Z,3864
2018-10-18T12:25:42.830Z,3976
2018-10-18T12:26:43.187Z,4236
2018-10-18T12:27:42.820Z,4356
2018-10-18T12:28:42.817Z,4152
2018-10-18T12:29:42.807Z,4160
2018-10-18T12:30:42.806Z,4144
2018-10-18T12:31:42.803Z,4052
2018-10-18T12:32:42.535Z,3608
2018-10-18T12:33:42.782Z,3332
2018-10-18T12:34:42.527Z,3236
2018-10-18T12:35:42.778Z,3284
2018-10-18T12:36:43.036Z,3232
2018-10-18T12:37:42.509Z,3276
2018-10-18T12:38:43.026Z,3456
2018-10-18T12:39:43.745Z,3616
2018-10-18T12:40:43.390Z,3844
2018-10-18T12:41:43.446Z,4304
2018-10-18T12:42:42.738Z,4732
2018-10-18T12:43:46.022Z,4980
2018-10-18T12:44:42.734Z,5056
2018-10-18T12:45:42.728Z,4220
2018-10-18T12:46:42.979Z,4328
2018-10-18T12:47:42.456Z,3820
2018-10-18T12:48:42.661Z,3720
2018-10-18T12:49:42.702Z,3872
2018-10-18T12:50:42.444Z,4196
2018-10-18T12:51:42.951Z,4380
2018-10-18T12:52:42.958Z,4292
2018-10-18T12:53:42.938Z,3824
2018-10-18T12:54:42.885Z,3304
2018-10-18T12:55:42.671Z,3256
2018-10-18T12:56:42.678Z,3344
2018-10-18T12:57:42.919Z,3300
2018-10-18T12:58:42.925Z,3540
2018-10-18T12:59:42.652Z,3940
2018-10-18T13:00:42.905Z,4740
2018-10-18T13:01:42.655Z,5504
2018-10-18T13:02:43.020Z,5368
2018-10-18T13:03:42.636Z,4604
2018-10-18T13:04:42.370Z,4012
2018-10-18T13:05:42.618Z,3980
2018-10-18T13:06:42.870Z,3860
2018-10-18T13:07:42.881Z,3836
2018-10-18T13:08:42.868Z,3720
2018-10-18T13:09:42.654Z,3652
2018-10-18T13:10:42.597Z,4004
2018-10-18T13:11:42.850Z,4684
2018-10-18T13:12:43.761Z,4384
2018-10-18T13:13:42.841Z,3964
2018-10-18T13:14:42.313Z,3732
2018-10-18T13:15:42.830Z,3792
2018-10-18T13:16:42.564Z,4132
2018-10-18T13:17:42.811Z,4348
2018-10-18T13:18:43.213Z,4592
2018-10-18T13:19:42.286Z,4620
2018-10-18T13:20:42.544Z,4740
2018-10-18T13:21:42.808Z,4908
2018-10-18T13:22:42.790Z,5548
2018-10-18T13:23:42.533Z,5224
2018-10-18T13:24:42.789Z,5652
2018-10-18T13:25:42.773Z,5580
2018-10-18T13:26:42.769Z,4864
2018-10-18T13:27:42.510Z,5180
2018-10-18T13:28:42.494Z,5048
2018-10-18T13:29:42.491Z,3908
2018-10-18T13:30:42.754Z,3596
2018-10-18T13:31:42.741Z,3256
2018-10-18T13:32:42.727Z,3284
2018-10-18T13:33:42.470Z,3384
2018-10-18T13:34:41.950Z,3852
2018-10-18T13:35:42.456Z,4784
2018-10-18T13:36:42.725Z,6148
2018-10-18T13:37:42.705Z,7712
2018-10-18T13:38:42.481Z,7968
2018-10-18T13:39:42.692Z,7700
2018-10-18T13:40:43.021Z,6768
2018-10-18T13:41:42.682Z,6216
2018-10-18T13:42:42.676Z,5456
2018-10-18T13:43:42.414Z,5128
2018-10-18T13:44:42.405Z,4772
2018-10-18T13:45:42.659Z,4448
2018-10-18T13:46:42.483Z,4452
2018-10-18T13:47:42.394Z,4300
2018-10-18T13:48:42.639Z,4112
2018-10-18T13:49:42.638Z,3964
2018-10-18T13:50:42.373Z,3928
2018-10-18T13:51:42.367Z,3764
2018-10-18T13:52:42.622Z,3484
2018-10-18T13:53:42.625Z,3456
2018-10-18T13:54:42.352Z,3412
2018-10-18T13:55:42.347Z,3408
2018-10-18T13:56:42.641Z,3248
2018-10-18T13:57:42.079Z,3228